Provo Municipal Airport
KPVU : rendu visible

Aérodrome :











RETROUVEZ-NOUS SUR...

 
LOGIN :

S'inscrire | Disclaimer

   EN    FR    IT 

 









Légende :    VFR   VFR Marginal   IFR   IFR Intensif   IFR Très Intensif
Visi : 
Plafond : 
>= 8 km
>= 3000ft
5 à 8 km
1000 à 3000 ft
1500m à 5 km
500 à 1000 ft
800 à 1500m
200 à 500 ft
< 800m
< 200 ft
Symboles :   Orages  Brouillard  Fortes neiges  Fortes précipitations  Vent > 20 kt






- Altitude de l'aérodrome : 4497 ft


KPVU - Provo Municipal

DERNIER METAR :
  • 100856Z AUTO 11004KT 10SM CLR M04/M05 A3028 RMK AO2 SLP269 T10391050 51008 FZRANO

METARs EXPIRÉS :
  • 100756Z AUTO 00000KT 10SM CLR M02/M03 A3027 RMK AO2 SLP268 T10221033 FZRANO
  • 100656Z AUTO 00000KT 10SM CLR M02/M03 A3026 RMK AO2 SLP262 T10171033 400561022 FZRANO

TAF KPVU
Valide du 10 à 06h jusqu'au 11 à 06h UTC


100520Z 1006/1106 VRB04KT P6SM SCT020 BKN050
FM101800 VRB04KT P6SM SCT080 SCT120



MET'MAP, la Météo Aéronautique d'un coup d'oeil ! - Copyright ORBIFLY Décembre 2007 - Disclaimer

ORBIFLY MET'MAP TEAM :

Programmation & Développement : Alexandra Zaïnal
Sur une idée originale de : Baudouin d'Aumeries
Assistance à la programmation : Marc-Olivier Méhu
Soutien technique & logistique : Manuel Goepfert

Contact : metmap@orbifly.com




SOURCES & CREDITS :

   NOAA       Earth
Advisory